createdAt,value
2022-09-06T00:02:25.546Z,9.95
2022-09-06T00:07:27.349Z,9.82
2022-09-06T00:12:29.054Z,11.18
2022-09-06T00:17:32.251Z,10.93
2022-09-06T00:22:33.940Z,10.20
2022-09-06T00:27:35.691Z,12.30
2022-09-06T00:32:37.360Z,10.48
2022-09-06T00:37:39.106Z,10.00
2022-09-06T00:42:40.841Z,9.93
2022-09-06T00:47:43.702Z,9.40
2022-09-06T00:52:48.669Z,11.15
2022-09-06T00:57:51.557Z,9.95
2022-09-06T01:02:54.006Z,9.45
2022-09-06T01:08:25.863Z,9.75
2022-09-06T01:14:05.876Z,10.82
2022-09-06T01:19:36.093Z,10.35
2022-09-06T01:24:43.678Z,10.77
2022-09-06T01:29:50.047Z,11.30
2022-09-06T01:34:58.536Z,11.90
2022-09-06T01:40:00.446Z,10.27
2022-09-06T01:45:17.964Z,9.80
2022-09-06T01:50:45.523Z,10.27
2022-09-06T01:55:49.987Z,10.93
2022-09-06T02:01:28.446Z,12.07
2022-09-06T02:06:35.828Z,13.57
2022-09-06T02:11:42.509Z,10.77
2022-09-06T02:16:47.823Z,12.27
2022-09-06T02:21:52.535Z,10.48
2022-09-06T02:26:54.498Z,11.77
2022-09-06T02:32:21.252Z,10.52
2022-09-06T02:37:26.503Z,9.85
2022-09-06T02:42:28.160Z,10.82
2022-09-06T02:47:29.815Z,10.98
2022-09-06T02:52:31.520Z,9.75
2022-09-06T02:57:33.203Z,10.93
2022-09-06T03:02:34.985Z,11.85
2022-09-06T03:07:36.719Z,11.80
2022-09-06T03:12:38.384Z,13.00
2022-09-06T03:17:40.600Z,10.23
2022-09-06T03:22:42.279Z,11.27
2022-09-06T03:27:44.313Z,11.05
2022-09-06T03:32:45.974Z,9.38
2022-09-06T03:37:47.656Z,10.25
2022-09-06T03:42:49.320Z,12.93
2022-09-06T03:47:50.976Z,9.88
2022-09-06T03:52:52.740Z,10.60
2022-09-06T03:57:54.412Z,12.65
2022-09-06T04:02:58.627Z,11.52
2022-09-06T04:08:03.280Z,11.48
2022-09-06T04:13:04.958Z,9.93
2022-09-06T04:18:09.273Z,10.45
2022-09-06T04:23:11.163Z,9.98
2022-09-06T04:28:12.971Z,12.48
2022-09-06T04:33:14.643Z,10.18
2022-09-06T04:38:16.893Z,10.68
2022-09-06T04:43:18.563Z,11.85
2022-09-06T04:48:20.455Z,11.80
2022-09-06T04:53:22.195Z,17.50
2022-09-06T04:58:24.167Z,12.80
2022-09-06T05:03:25.963Z,10.55
2022-09-06T05:08:27.756Z,12.32
2022-09-06T05:13:29.566Z,10.23
2022-09-06T05:18:31.434Z,12.55
2022-09-06T05:23:33.392Z,12.32
2022-09-06T05:28:35.053Z,10.93
2022-09-06T05:33:37.049Z,13.98
2022-09-06T05:38:38.695Z,12.02
2022-09-06T05:43:40.482Z,10.13
2022-09-06T05:48:42.199Z,16.33
2022-09-06T05:53:45.189Z,10.00
2022-09-06T05:58:46.855Z,10.65
2022-09-06T06:03:55.443Z,11.88
2022-09-06T06:08:57.586Z,12.45
2022-09-06T06:13:59.383Z,11.30
2022-09-06T06:19:01.187Z,10.60
2022-09-06T06:24:04.746Z,10.20
2022-09-06T06:29:09.522Z,10.10
2022-09-06T06:34:11.273Z,9.68
2022-09-06T06:39:13.050Z,13.45
2022-09-06T06:44:14.718Z,12.00
2022-09-06T06:49:16.405Z,10.10
2022-09-06T06:54:18.090Z,12.63
2022-09-06T06:59:20.579Z,10.50
2022-09-06T07:04:23.214Z,12.00
2022-09-06T07:09:25.274Z,13.60
2022-09-06T07:14:26.950Z,11.88
2022-09-06T07:24:51.624Z,12.10
2022-09-06T07:29:53.332Z,11.68
2022-09-06T07:34:55.326Z,12.63
2022-09-06T07:39:57.084Z,13.65
2022-09-06T07:44:58.888Z,11.85
2022-09-06T07:55:22.512Z,13.13
2022-09-06T08:00:25.229Z,12.38
2022-09-06T08:10:51.741Z,13.10
2022-09-06T08:16:00.545Z,13.85
2022-09-06T08:21:12.989Z,13.40
2022-09-06T08:26:16.162Z,11.60
2022-09-06T08:31:19.095Z,14.30
2022-09-06T08:36:21.705Z,14.55
2022-09-06T08:41:32.993Z,11.43
2022-09-06T08:46:44.635Z,9.73
2022-09-06T08:51:49.176Z,13.32
2022-09-06T08:57:14.244Z,13.50
2022-09-06T09:02:23.121Z,12.02
2022-09-06T09:07:44.969Z,10.95
2022-09-06T09:12:48.781Z,10.82
2022-09-06T09:17:52.875Z,12.98
2022-09-06T09:22:55.381Z,11.90
2022-09-06T09:27:57.914Z,14.43
2022-09-06T18:29:16.455Z,8.55
2022-09-06T18:34:18.698Z,10.40
2022-09-06T18:39:20.584Z,7.90
2022-09-06T18:44:23.059Z,8.10
2022-09-06T18:49:24.917Z,8.52
2022-09-06T18:54:26.943Z,9.88
2022-09-06T18:59:28.778Z,10.88
2022-09-06T19:04:31.090Z,10.52
2022-09-06T19:09:32.894Z,8.95
2022-09-06T19:14:34.689Z,8.18
2022-09-06T19:19:36.450Z,7.35
2022-09-06T19:24:39.592Z,6.72
2022-09-06T19:29:41.489Z,6.57
2022-09-06T19:34:43.270Z,6.15
2022-09-06T19:39:45.333Z,5.28
2022-09-06T19:44:47.261Z,6.25
2022-09-06T19:49:48.977Z,6.03
2022-09-06T19:54:52.540Z,5.15
2022-09-06T19:59:54.805Z,5.50
2022-09-06T20:04:56.517Z,5.40
2022-09-06T20:09:58.243Z,6.30
2022-09-06T20:15:00.056Z,6.15
2022-09-06T20:20:02.669Z,8.10
2022-09-06T20:25:04.913Z,7.00
2022-09-06T20:30:07.151Z,8.00
2022-09-06T20:35:09.251Z,9.25
2022-09-06T20:40:12.937Z,11.77
2022-09-06T20:45:15.551Z,10.20
2022-09-06T20:50:17.389Z,13.50
2022-09-06T20:55:19.206Z,13.38
2022-09-06T21:00:21.022Z,12.73
2022-09-06T21:05:22.730Z,15.05
2022-09-06T21:10:24.505Z,14.50
2022-09-06T21:15:26.358Z,13.23
2022-09-06T21:20:28.597Z,14.65
2022-09-06T21:25:30.382Z,15.93
2022-09-06T21:30:32.167Z,15.70
2022-09-06T21:35:34.704Z,15.27
2022-09-06T21:40:36.505Z,18.67
2022-09-06T21:45:38.278Z,17.70
2022-09-06T21:50:40.044Z,21.48
2022-09-06T21:55:42.171Z,19.58
2022-09-06T22:00:50.754Z,21.33
2022-09-06T22:06:18.314Z,21.15
2022-09-06T22:11:22.669Z,22.95
2022-09-06T22:16:24.824Z,26.13
2022-09-06T22:21:26.794Z,24.75
2022-09-06T22:26:30.694Z,25.38
2022-09-06T22:31:34.971Z,25.92
2022-09-06T22:36:37.450Z,26.40
2022-09-06T22:41:39.317Z,29.58
2022-09-06T22:46:41.212Z,31.33
2022-09-06T22:51:42.996Z,26.50
2022-09-06T22:56:44.688Z,28.55
2022-09-06T23:01:46.402Z,31.98
2022-09-06T23:06:48.070Z,29.52
2022-09-06T23:11:49.773Z,32.40
2022-09-06T23:16:51.427Z,35.10
2022-09-06T23:21:53.100Z,31.23
2022-09-06T23:26:55.504Z,34.47
2022-09-06T23:31:57.547Z,33.35
2022-09-06T23:37:00.121Z,34.40
2022-09-06T23:42:02.322Z,35.80
2022-09-06T23:47:04.067Z,34.80
2022-09-06T23:52:06.028Z,35.58
2022-09-06T23:57:07.821Z,34.05
